Time;durP1;ratioP1;P1;durP2;ratioP2;P2;SDS_P1;SDS_P2;PMS_P1;PMS_P2;Temp;Humidity;BMP_temperature;BMP_pressure;BME280_temperature;BME280_humidity;BME280_pressure;Samples;Min_cycle;Max_cycle;Signal;HPM_P1;HPM_P2
2021/08/18 00:01:54;;;;;;;7.67;2.77;;;;;;;12.61;84.83;98970.81;4163797;83;20983;-81
2021/08/18 00:07:55;;;;;;;6.70;3.33;;;;;;;12.64;85.07;98974.15;4077630;85;21077;-83
2021/08/18 00:13:56;;;;;;;4.50;2.92;;;;;;;12.63;85.15;98975.91;4178102;83;21976;-84
2021/08/18 00:19:57;;;;;;;8.15;3.20;;;;;;;12.64;85.56;98982.97;4171121;83;21359;-80
2021/08/18 00:25:59;;;;;;;4.20;2.67;;;;;;;12.63;85.51;98980.03;4166753;83;21599;-81
2021/08/18 00:32:00;;;;;;;8.78;3.17;;;;;;;12.63;85.60;98981.41;4170627;83;20989;-82
2021/08/18 00:38:02;;;;;;;3.15;2.30;;;;;;;12.60;85.70;98972.00;4170633;83;21038;-81
2021/08/18 00:44:06;;;;;;;5.42;2.90;;;;;;;12.57;85.72;98973.35;4162885;83;21044;-80
2021/08/18 00:50:10;;;;;;;6.65;3.27;;;;;;;12.53;86.27;98969.80;4171075;83;21105;-82
2021/08/18 00:56:13;;;;;;;6.10;2.83;;;;;;;12.58;86.54;98987.27;4163321;83;21101;-82
2021/08/18 01:02:14;;;;;;;6.67;3.25;;;;;;;12.58;86.32;98966.67;4162701;83;21068;-81
2021/08/18 01:08:15;;;;;;;8.28;2.80;;;;;;;12.58;86.74;98970.22;4163930;83;21115;-84
2021/08/18 01:14:19;;;;;;;5.42;3.10;;;;;;;12.61;86.81;98965.31;4170991;83;21032;-80
2021/08/18 01:20:33;;;;;;;6.05;3.30;;;;;;;12.61;86.19;98976.30;4162547;83;21561;-83
2021/08/18 01:26:38;;;;;;;5.35;3.00;;;;;;;12.65;86.07;98978.45;4156970;83;21014;-81
2021/08/18 01:32:55;;;;;;;7.12;3.00;;;;;;;12.73;86.48;98977.12;4168707;83;21014;-81
2021/08/18 01:39:07;;;;;;;6.50;2.95;;;;;;;12.73;86.15;98964.18;4162671;83;21052;-81
2021/08/18 01:45:11;;;;;;;4.92;2.90;;;;;;;12.74;86.31;98964.37;4159586;83;21532;-82
2021/08/18 01:51:12;;;;;;;7.28;3.15;;;;;;;12.73;86.56;98955.94;4164403;83;22071;-81
2021/08/18 01:57:14;;;;;;;4.83;2.75;;;;;;;12.71;86.07;98955.53;4170807;83;21626;-81
2021/08/18 02:03:15;;;;;;;4.12;2.85;;;;;;;12.68;86.21;98948.84;4161781;83;21057;-81
2021/08/18 02:09:17;;;;;;;5.17;3.30;;;;;;;12.65;86.77;98952.37;4166615;83;21071;-81
2021/08/18 02:15:28;;;;;;;5.92;3.12;;;;;;;12.67;86.72;98955.33;4165280;83;21623;-81
2021/08/18 02:21:29;;;;;;;4.95;2.80;;;;;;;12.62;86.52;98954.52;4173542;83;21066;-82
2021/08/18 02:27:30;;;;;;;5.80;3.30;;;;;;;12.59;86.73;98953.16;4168151;83;21067;-82
2021/08/18 02:33:32;;;;;;;6.92;3.33;;;;;;;12.59;87.09;98940.20;4173779;83;21498;-82
2021/08/18 02:39:33;;;;;;;4.08;2.77;;;;;;;12.60;87.33;98933.55;4168978;83;21017;-82
2021/08/18 02:45:34;;;;;;;6.90;3.27;;;;;;;12.62;87.22;98944.14;4183941;83;21061;-82
2021/08/18 02:51:36;;;;;;;4.72;3.12;;;;;;;12.68;87.48;98955.70;4170232;82;21044;-82
2021/08/18 02:57:37;;;;;;;6.78;3.25;;;;;;;12.62;86.97;98958.64;4173622;83;21044;-82
2021/08/18 03:03:38;;;;;;;5.97;2.85;;;;;;;12.60;86.72;98978.06;4171756;83;21059;-82
2021/08/18 03:09:39;;;;;;;7.12;3.37;;;;;;;12.57;86.56;98987.08;4168859;83;21020;-81
2021/08/18 03:15:40;;;;;;;4.03;2.98;;;;;;;12.60;86.17;98989.84;4176854;83;21061;-82
2021/08/18 03:21:42;;;;;;;3.87;2.75;;;;;;;12.65;86.07;98986.70;4160068;83;21054;-82
2021/08/18 03:27:43;;;;;;;4.53;2.90;;;;;;;12.73;85.94;98983.98;4173303;83;21052;-82
2021/08/18 03:33:45;;;;;;;3.40;2.67;;;;;;;12.75;85.87;98981.03;4167558;83;21593;-82
2021/08/18 03:39:46;;;;;;;7.17;3.30;;;;;;;12.76;85.71;98970.84;4167053;83;21975;-81
2021/08/18 03:45:48;;;;;;;4.47;2.55;;;;;;;12.71;85.48;98965.72;4165280;83;21029;-84
2021/08/18 03:51:50;;;;;;;6.00;3.00;;;;;;;12.71;85.27;98965.72;4167181;83;21584;-82
2021/08/18 03:57:52;;;;;;;6.67;3.08;;;;;;;12.75;85.17;98972.03;4159218;83;21031;-81
2021/08/18 04:03:53;;;;;;;5.95;2.65;;;;;;;12.74;84.98;98968.48;4172612;82;21024;-82
2021/08/18 04:09:54;;;;;;;4.42;2.98;;;;;;;12.73;85.06;98973.80;4170672;83;21647;-83
2021/08/18 04:15:55;;;;;;;4.78;3.00;;;;;;;12.70;84.94;98971.80;4177800;83;21537;-82
2021/08/18 04:21:56;;;;;;;5.80;3.27;;;;;;;12.75;84.33;98970.05;4163186;83;21053;-81
2021/08/18 04:27:58;;;;;;;3.35;2.72;;;;;;;12.81;83.83;98973.21;4164111;83;21067;-82
2021/08/18 04:34:00;;;;;;;5.92;2.77;;;;;;;12.90;83.73;98966.74;4162682;83;21068;-81
2021/08/18 04:40:06;;;;;;;5.80;3.15;;;;;;;12.97;83.26;98974.40;4166211;83;21025;-83
2021/08/18 04:46:07;;;;;;;5.92;4.22;;;;;;;13.05;83.55;98975.22;4159883;83;21062;-82
2021/08/18 04:52:08;;;;;;;4.53;3.30;;;;;;;13.10;83.41;98984.45;4170065;83;21036;-82
2021/08/18 04:58:10;;;;;;;4.40;3.15;;;;;;;13.19;83.13;98977.98;4156427;83;21083;-82
2021/08/18 05:04:11;;;;;;;5.67;3.02;;;;;;;13.32;83.34;98988.78;4156640;83;55824;-81
2021/08/18 05:10:13;;;;;;;4.75;3.37;;;;;;;13.41;83.50;98993.30;4067863;85;21524;-81
2021/08/18 05:16:14;;;;;;;5.12;3.00;;;;;;;13.45;83.40;99002.34;4145279;84;21031;-82
2021/08/18 05:22:15;;;;;;;9.63;3.77;;;;;;;13.49;83.82;98998.99;4143828;84;21058;-82
2021/08/18 05:28:18;;;;;;;8.88;3.65;;;;;;;13.60;84.16;99009.40;4150516;84;21077;-82
2021/08/18 05:34:20;;;;;;;8.28;3.47;;;;;;;13.70;83.60;99001.73;4157821;83;21016;-83
2021/08/18 05:40:22;;;;;;;8.08;3.55;;;;;;;13.76;84.18;99000.95;4157212;84;21003;-83
2021/08/18 05:46:23;;;;;;;9.38;3.62;;;;;;;13.75;83.53;99004.09;4160768;84;21082;-82
2021/08/18 05:52:24;;;;;;;6.67;3.30;;;;;;;13.74;83.29;99000.55;4145950;84;21563;-81
2021/08/18 05:58:26;;;;;;;9.88;4.80;;;;;;;13.83;83.04;99013.88;4158262;84;21098;-82
2021/08/18 06:04:27;;;;;;;9.15;5.67;;;;;;;13.87;83.14;99016.05;4151863;84;20995;-81
2021/08/18 06:10:28;;;;;;;10.98;6.22;;;;;;;13.92;83.20;99020.55;4144412;84;21030;-84
2021/08/18 06:16:30;;;;;;;17.65;6.58;;;;;;;13.97;83.30;99017.41;4154223;84;21622;-82
2021/08/18 06:22:31;;;;;;;13.00;6.80;;;;;;;14.00;82.97;99022.72;4158751;83;21089;-82
2021/08/18 06:28:34;;;;;;;8.10;5.58;;;;;;;14.10;83.16;99021.31;4059013;85;21085;-81
2021/08/18 06:34:36;;;;;;;12.45;6.17;;;;;;;14.19;83.10;99021.67;4089782;85;21066;-82
2021/08/18 06:40:38;;;;;;;9.65;4.33;;;;;;;14.35;83.40;99019.88;4032726;86;21070;-82
2021/08/18 06:46:39;;;;;;;7.20;4.62;;;;;;;14.47;82.96;99020.05;4010336;86;21070;-82
2021/08/18 06:52:41;;;;;;;7.90;5.05;;;;;;;14.67;83.37;99014.23;4147536;84;20960;-82
2021/08/18 06:58:42;;;;;;;10.20;4.55;;;;;;;14.81;82.94;99012.78;4172121;84;21050;-83
2021/08/18 07:04:44;;;;;;;11.18;4.15;;;;;;;14.93;83.23;99016.45;4137339;83;20999;-82
2021/08/18 07:10:45;;;;;;;10.23;4.62;;;;;;;15.01;83.28;99011.08;4143596;83;21053;-82
2021/08/18 07:16:47;;;;;;;7.65;3.65;;;;;;;15.03;82.68;99005.38;4150470;84;21003;-82
2021/08/18 07:22:48;;;;;;;11.20;4.65;;;;;;;15.00;82.26;99011.67;4061991;85;21150;-85
2021/08/18 07:28:49;;;;;;;9.68;5.03;;;;;;;15.01;82.20;99015.22;4054442;85;21517;-82
2021/08/18 07:34:50;;;;;;;8.58;4.85;;;;;;;15.08;82.23;99013.81;4066322;84;21177;-81
2021/08/18 07:40:52;;;;;;;8.75;4.97;;;;;;;15.16;82.27;99021.61;4146785;83;21011;-81
2021/08/18 07:46:53;;;;;;;10.75;5.05;;;;;;;15.24;82.05;99021.76;4122709;84;39335;-81
2021/08/18 07:52:54;;;;;;;10.38;5.53;;;;;;;15.40;82.27;99019.90;4124276;84;21063;-82
2021/08/18 07:58:55;;;;;;;9.45;5.17;;;;;;;15.48;81.63;99019.45;4111446;84;21066;-82
2021/08/18 08:04:56;;;;;;;9.50;4.92;;;;;;;15.58;81.27;99015.80;4121701;84;21014;-82
2021/08/18 08:10:58;;;;;;;16.15;5.42;;;;;;;15.73;81.24;99019.81;4120692;84;21802;-82
2021/08/18 08:16:59;;;;;;;10.40;4.78;;;;;;;15.87;81.12;99022.44;4128878;84;21078;-83
2021/08/18 08:23:02;;;;;;;8.95;5.65;;;;;;;16.00;80.40;99016.59;4112002;84;21603;-82
2021/08/18 08:29:03;;;;;;;9.73;5.75;;;;;;;16.12;80.02;99009.95;4110648;84;21028;-82
2021/08/18 08:35:07;;;;;;;10.13;5.75;;;;;;;16.24;79.77;99005.89;4120850;84;21110;-82
2021/08/18 08:41:09;;;;;;;7.70;6.10;;;;;;;16.41;79.35;99004.90;4124690;84;21087;-81
2021/08/18 08:47:10;;;;;;;7.67;5.42;;;;;;;16.72;79.26;98985.18;4126699;84;21106;-83
2021/08/18 08:53:12;;;;;;;8.98;5.37;;;;;;;17.09;78.81;98986.41;4117447;84;21538;-83
2021/08/18 08:59:14;;;;;;;12.23;6.25;;;;;;;17.65;78.54;98980.57;4114985;84;21062;-83
2021/08/18 09:05:28;;;;;;;10.32;6.70;;;;;;;17.94;76.73;98977.48;4126169;84;21556;-82
2021/08/18 09:11:29;;;;;;;12.18;5.83;;;;;;;18.32;75.61;98969.63;4117717;84;21058;-82
2021/08/18 09:17:37;;;;;;;8.93;5.78;;;;;;;18.55;73.97;98968.17;4114228;84;21847;-83
2021/08/18 09:23:38;;;;;;;10.95;6.35;;;;;;;18.51;74.46;98971.02;4124812;84;21012;-83
2021/08/18 09:29:46;;;;;;;14.58;6.35;;;;;;;18.45;73.98;98967.78;4131158;84;21055;-83
2021/08/18 09:35:57;;;;;;;12.65;6.37;;;;;;;18.34;73.81;98969.95;4112995;84;21063;-82
2021/08/18 09:41:58;;;;;;;11.08;6.62;;;;;;;18.40;73.41;98969.06;4121213;84;21056;-83
2021/08/18 09:48:16;;;;;;;9.55;6.10;;;;;;;18.61;73.21;98965.86;4113699;84;21557;-83
2021/08/18 09:54:18;;;;;;;9.05;6.20;;;;;;;18.78;72.74;98968.05;4128634;84;21043;-83
2021/08/18 10:00:19;;;;;;;10.23;5.97;;;;;;;18.91;72.28;98965.39;4115360;84;21678;-84
2021/08/18 10:06:21;;;;;;;44.73;9.33;;;;;;;19.30;71.72;98961.12;4113682;84;21011;-85
2021/08/18 10:12:22;;;;;;;9.10;5.33;;;;;;;20.13;72.03;98966.51;4121518;84;21102;-82
2021/08/18 10:18:37;;;;;;;9.88;6.10;;;;;;;21.22;71.12;98966.02;4120700;84;21649;-83
2021/08/18 10:24:40;;;;;;;9.35;6.72;;;;;;;20.99;69.25;98964.19;4132624;84;21110;-83
2021/08/18 10:30:50;;;;;;;10.05;6.03;;;;;;;20.33;69.34;98962.80;4109745;84;21055;-83
2021/08/18 10:36:57;;;;;;;9.18;6.12;;;;;;;20.39;68.91;98956.86;4124005;84;21038;-82
2021/08/18 10:42:58;;;;;;;12.53;5.80;;;;;;;21.16;68.87;98943.36;4118986;84;21046;-83
2021/08/18 10:49:02;;;;;;;23.92;7.62;;;;;;;21.62;67.06;98943.41;4121670;84;21383;-83
2021/08/18 10:55:26;;;;;;;29.18;7.50;;;;;;;22.00;66.29;98936.95;4110053;84;20992;-84
2021/08/18 11:01:42;;;;;;;11.03;5.90;;;;;;;22.59;65.90;98936.15;4119899;84;21077;-83
2021/08/18 11:08:14;;;;;;;8.28;5.90;;;;;;;22.99;63.83;98934.16;4117273;84;21898;-83
2021/08/18 11:14:15;;;;;;;7.28;5.33;;;;;;;23.17;62.64;98928.66;4133942;84;21042;-83
2021/08/18 11:20:20;;;;;;;9.40;5.83;;;;;;;23.05;62.07;98928.77;4119095;84;21086;-82
2021/08/18 11:26:25;;;;;;;9.23;5.65;;;;;;;22.79;61.84;98921.82;4124850;84;21078;-83
2021/08/18 11:32:27;;;;;;;6.58;5.10;;;;;;;23.13;61.94;98920.27;4120160;84;21532;-83
2021/08/18 11:38:29;;;;;;;7.92;4.83;;;;;;;23.60;60.87;98896.18;4112228;84;20999;-83
2021/08/18 11:44:32;;;;;;;9.28;4.80;;;;;;;24.16;59.59;98925.25;4115925;84;21055;-84
2021/08/18 11:50:33;;;;;;;6.08;4.83;;;;;;;24.24;59.17;98913.13;4121226;84;20968;-85
2021/08/18 11:56:35;;;;;;;5.60;4.25;;;;;;;24.23;57.88;98900.36;4117656;84;21032;-84
2021/08/18 12:02:38;;;;;;;6.55;4.30;;;;;;;23.99;56.70;98913.45;4098674;84;20991;-83
2021/08/18 12:08:41;;;;;;;8.13;4.85;;;;;;;23.68;55.87;98902.38;4128700;84;21066;-85
2021/08/18 12:14:50;;;;;;;7.03;4.20;;;;;;;23.23;55.63;98893.91;4120365;84;21103;-82
2021/08/18 12:20:52;;;;;;;7.20;4.80;;;;;;;22.88;55.83;98893.97;4127297;84;21019;-81
2021/08/18 12:27:01;;;;;;;5.72;4.28;;;;;;;22.44;55.62;98888.30;4124522;84;21043;-83
2021/08/18 12:33:18;;;;;;;5.53;3.92;;;;;;;21.99;55.74;98890.17;4131077;84;21054;-82
2021/08/18 12:39:25;;;;;;;3.47;2.75;;;;;;;21.93;55.75;98895.39;4119168;84;21134;-82
2021/08/18 12:45:31;;;;;;;4.62;2.90;;;;;;;21.66;54.37;98893.91;4138065;84;21099;-84
2021/08/18 12:51:32;;;;;;;4.90;3.00;;;;;;;21.45;53.90;98888.30;4134955;84;21025;-84
2021/08/18 12:57:35;;;;;;;7.15;3.42;;;;;;;21.25;54.05;98883.00;4144478;84;21392;-82
2021/08/18 13:03:36;;;;;;;5.50;3.30;;;;;;;21.14;53.28;98877.64;4124926;84;21494;-82
2021/08/18 13:09:38;;;;;;;7.92;3.52;;;;;;;20.99;53.47;98871.75;4118795;84;21028;-81
2021/08/18 13:15:39;;;;;;;5.25;3.30;;;;;;;21.00;53.25;98859.38;4121305;84;21524;-83
2021/08/18 13:21:40;;;;;;;5.65;2.90;;;;;;;20.93;54.20;98858.21;4112326;84;21512;-83
2021/08/18 13:27:42;;;;;;;5.33;3.20;;;;;;;20.86;53.82;98863.98;4113898;84;21023;-85
2021/08/18 13:33:43;;;;;;;4.60;2.92;;;;;;;20.81;53.45;98862.39;4109974;84;21098;-85
2021/08/18 13:39:45;;;;;;;5.12;3.25;;;;;;;20.74;53.49;98866.17;4111028;84;21012;-83
2021/08/18 13:45:46;;;;;;;4.12;2.77;;;;;;;20.69;53.47;98860.41;4111004;84;21000;-82
2021/08/18 13:51:47;;;;;;;4.67;2.90;;;;;;;20.63;53.33;98851.83;4116856;84;21082;-82
2021/08/18 13:57:48;;;;;;;7.37;2.92;;;;;;;20.58;53.41;98857.94;4109560;84;21110;-82
2021/08/18 14:03:50;;;;;;;5.12;3.22;;;;;;;20.56;53.35;98856.23;4129518;84;20972;-82
2021/08/18 14:09:51;;;;;;;5.47;2.75;;;;;;;20.56;53.49;98859.62;4105152;85;35806;-81
2021/08/18 14:15:53;;;;;;;5.08;3.42;;;;;;;20.54;53.52;98860.06;4111795;85;21385;-81
2021/08/18 14:21:54;;;;;;;5.90;3.00;;;;;;;20.47;54.85;98856.09;4103336;85;21026;-82
2021/08/18 14:27:56;;;;;;;4.47;3.02;;;;;;;20.35;54.40;98847.14;4107200;84;21011;-84
2021/08/18 14:33:57;;;;;;;6.08;3.65;;;;;;;20.27;53.99;98849.97;4104592;85;21559;-81
2021/08/18 14:39:58;;;;;;;4.12;3.00;;;;;;;20.18;54.18;98852.02;4108657;84;21488;-82
2021/08/18 14:45:59;;;;;;;4.58;2.90;;;;;;;20.14;54.22;98856.11;4103787;84;20979;-81
2021/08/18 14:52:03;;;;;;;3.83;2.60;;;;;;;20.10;54.28;98860.97;4108885;84;21000;-80
2021/08/18 14:58:05;;;;;;;4.90;3.08;;;;;;;20.06;53.69;98865.23;4111315;84;21084;-82
2021/08/18 15:04:06;;;;;;;4.70;2.70;;;;;;;20.00;54.43;98860.66;4105673;85;21151;-81
2021/08/18 15:10:09;;;;;;;5.80;2.47;;;;;;;19.91;53.75;98864.69;4106939;85;21060;-82
2021/08/18 15:16:10;;;;;;;4.25;2.90;;;;;;;19.89;53.86;98858.19;4108935;85;21607;-83
2021/08/18 15:22:12;;;;;;;5.15;2.77;;;;;;;19.79;54.36;98859.28;4110660;84;21057;-84
2021/08/18 15:28:14;;;;;;;6.58;2.92;;;;;;;19.71;54.08;98850.98;4109770;85;21077;-83
2021/08/18 15:34:17;;;;;;;5.15;3.00;;;;;;;19.69;54.03;98854.80;4108431;85;21540;-83
2021/08/18 15:40:18;;;;;;;5.95;2.87;;;;;;;19.60;54.35;98858.83;4109504;85;22152;-85
2021/08/18 15:46:19;;;;;;;5.42;3.02;;;;;;;19.49;54.71;98859.72;4107383;85;21059;-83
2021/08/18 15:52:20;;;;;;;7.87;3.15;;;;;;;19.42;54.71;98859.89;4115174;85;21029;-82
2021/08/18 15:58:22;;;;;;;7.97;3.77;;;;;;;19.38;54.38;98851.48;4107155;85;21393;-83
2021/08/18 16:04:23;;;;;;;5.92;3.42;;;;;;;19.30;54.76;98852.89;4034579;85;33954;-84
2021/08/18 16:10:24;;;;;;;4.35;3.05;;;;;;;19.17;55.29;98849.25;4045595;85;21159;-83
2021/08/18 16:16:26;;;;;;;5.40;2.95;;;;;;;19.07;55.98;98851.08;4040452;85;21135;-83
2021/08/18 16:22:27;;;;;;;4.22;2.47;;;;;;;18.96;56.03;98849.78;4047275;85;21048;-82
2021/08/18 16:28:28;;;;;;;4.60;3.05;;;;;;;18.91;56.43;98853.06;4030681;85;21028;-83
2021/08/18 16:34:30;;;;;;;6.12;2.77;;;;;;;18.80;56.62;98846.40;4037669;85;21545;-83
2021/08/18 16:40:31;;;;;;;5.05;3.50;;;;;;;18.73;57.03;98854.88;4046075;85;21947;-83
2021/08/18 16:46:32;;;;;;;5.42;3.05;;;;;;;18.61;57.03;98851.41;4031798;85;21527;-84
2021/08/18 16:52:33;;;;;;;6.17;3.42;;;;;;;18.54;57.12;98852.34;4035847;85;21037;-84
2021/08/18 16:58:35;;;;;;;5.28;3.45;;;;;;;18.43;57.33;98853.19;4038132;85;21954;-82
2021/08/18 17:04:36;;;;;;;6.75;3.10;;;;;;;18.33;57.75;98856.97;3932718;83;10000279;-82
2021/08/18 17:10:42;;;;;;;4.37;3.00;;;;;;;18.25;58.07;98858.33;4049056;85;22039;-83
2021/08/18 17:16:43;;;;;;;6.83;3.07;;;;;;;18.13;58.35;98854.05;3966921;87;21618;-82
2021/08/18 17:22:45;;;;;;;8.50;3.67;;;;;;;18.02;58.84;98859.83;4044547;86;21035;-83
2021/08/18 17:28:46;;;;;;;4.33;3.30;;;;;;;17.86;59.96;98861.14;4036380;86;21451;-83
2021/08/18 17:34:47;;;;;;;6.80;3.87;;;;;;;17.70;60.00;98867.97;4043510;86;21031;-83
2021/08/18 17:40:49;;;;;;;12.45;5.12;;;;;;;17.57;60.45;98869.80;3982198;87;21473;-82
2021/08/18 17:46:51;;;;;;;14.40;5.28;;;;;;;17.37;60.60;98875.88;4049884;85;21062;-83
2021/08/18 17:52:52;;;;;;;8.15;4.55;;;;;;;17.25;61.46;98875.11;3958597;87;21050;-83
2021/08/18 17:58:53;;;;;;;13.25;6.33;;;;;;;17.07;61.92;98885.09;3974776;87;21039;-83
2021/08/18 18:04:54;;;;;;;9.95;5.85;;;;;;;16.85;61.68;98886.63;4045072;84;21081;-82
2021/08/18 18:10:55;;;;;;;16.48;8.15;;;;;;;16.73;61.92;98887.81;4072055;85;21013;-84
2021/08/18 18:16:57;;;;;;;8.68;4.95;;;;;;;16.68;62.55;98891.84;4051840;85;21066;-83
2021/08/18 18:23:00;;;;;;;10.18;4.60;;;;;;;16.58;62.59;98894.17;4039098;85;21004;-83
2021/08/18 18:29:01;;;;;;;8.08;4.85;;;;;;;16.47;63.24;98902.42;4038121;85;21037;-83
2021/08/18 18:35:05;;;;;;;8.00;4.62;;;;;;;16.35;63.56;98897.44;4039744;85;21113;-83
2021/08/18 18:41:06;;;;;;;11.90;6.00;;;;;;;16.25;63.90;98896.97;4042626;85;21114;-83
2021/08/18 18:47:08;;;;;;;15.90;7.97;;;;;;;16.15;64.10;98898.67;4063418;85;21506;-82
2021/08/18 18:53:09;;;;;;;14.10;7.78;;;;;;;16.04;64.68;98898.60;4058759;85;20998;-83
2021/08/18 18:59:10;;;;;;;13.62;6.85;;;;;;;15.93;64.70;98898.73;4075301;84;21941;-83
2021/08/18 19:05:12;;;;;;;10.75;5.65;;;;;;;15.88;64.63;98897.81;4053819;85;21072;-83
2021/08/18 19:11:13;;;;;;;13.72;6.58;;;;;;;15.82;64.64;98904.98;4050468;85;21699;-85
2021/08/18 19:17:15;;;;;;;12.23;6.67;;;;;;;15.74;64.85;98907.62;4055308;85;21058;-83
2021/08/18 19:23:17;;;;;;;12.70;7.05;;;;;;;15.71;65.19;98910.45;4058975;85;21096;-84
2021/08/18 19:29:18;;;;;;;16.27;7.17;;;;;;;15.57;65.29;98908.60;4071268;85;21010;-84
2021/08/18 19:35:20;;;;;;;16.10;8.58;;;;;;;15.49;65.56;98909.28;4072639;85;21067;-82
2021/08/18 19:41:21;;;;;;;12.07;6.25;;;;;;;15.35;65.63;98910.77;4075467;85;21035;-83
2021/08/18 19:47:23;;;;;;;11.73;5.58;;;;;;;15.32;65.85;98900.55;4056813;85;21044;-82
2021/08/18 19:53:25;;;;;;;10.40;5.42;;;;;;;15.26;65.94;98902.19;4044775;85;21474;-83
2021/08/18 19:59:26;;;;;;;8.98;4.97;;;;;;;15.20;66.38;98912.09;4045947;85;21017;-85
2021/08/18 20:05:27;;;;;;;10.23;4.92;;;;;;;15.16;66.47;98920.97;4032561;85;21090;-82
2021/08/18 20:11:29;;;;;;;7.20;5.12;;;;;;;15.10;66.99;98919.84;4040894;85;21041;-83
2021/08/18 20:17:30;;;;;;;8.53;4.87;;;;;;;14.95;67.75;98916.23;4057472;85;21087;-83
2021/08/18 20:23:33;;;;;;;9.88;5.78;;;;;;;14.86;68.88;98910.40;4033600;85;21567;-85
2021/08/18 20:29:35;;;;;;;11.18;6.95;;;;;;;14.72;68.51;98909.13;4042991;85;21468;-82
2021/08/18 20:35:36;;;;;;;12.47;5.70;;;;;;;14.62;68.71;98904.45;4031677;85;21061;-84
2021/08/18 20:41:41;;;;;;;12.05;5.25;;;;;;;14.63;68.68;98905.43;4051001;85;21186;-82
2021/08/18 20:47:42;;;;;;;11.38;5.55;;;;;;;14.62;68.81;98912.72;4053010;85;21017;-83
2021/08/18 20:53:43;;;;;;;8.08;4.92;;;;;;;14.57;69.07;98909.80;4031183;85;21151;-83
2021/08/18 20:59:45;;;;;;;9.63;5.15;;;;;;;14.57;69.76;98912.55;4037045;85;21048;-81
2021/08/18 21:05:47;;;;;;;9.10;4.90;;;;;;;14.55;69.72;98908.03;4038921;85;21091;-81
2021/08/18 21:11:48;;;;;;;10.00;4.75;;;;;;;14.60;69.91;98900.73;4034536;85;21011;-81
2021/08/18 21:17:50;;;;;;;8.45;4.80;;;;;;;14.60;69.81;98900.73;4032456;85;21076;-83
2021/08/18 21:23:52;;;;;;;10.88;5.50;;;;;;;14.61;70.44;98904.28;4029641;85;21044;-82
2021/08/18 21:29:53;;;;;;;8.10;4.67;;;;;;;14.55;70.44;98894.27;4041199;85;21119;-82
2021/08/18 21:35:56;;;;;;;9.30;5.12;;;;;;;14.41;70.60;98895.73;4043460;85;21037;-83
2021/08/18 21:41:57;;;;;;;8.10;4.70;;;;;;;14.34;70.78;98891.66;4045921;85;21593;-81
2021/08/18 21:47:58;;;;;;;8.73;5.12;;;;;;;14.32;71.20;98894.59;4042834;85;21094;-82
2021/08/18 21:53:59;;;;;;;8.08;4.55;;;;;;;14.26;71.35;98892.88;4037230;85;21087;-82
2021/08/18 22:00:09;;;;;;;9.23;5.17;;;;;;;14.28;71.42;98899.35;4047076;85;21063;-82
2021/08/18 22:06:12;;;;;;;7.65;4.47;;;;;;;14.29;71.52;98896.20;4058699;85;21064;-83
2021/08/18 22:12:13;;;;;;;8.08;4.47;;;;;;;14.30;71.65;98892.86;4053779;85;21704;-82
2021/08/18 22:18:14;;;;;;;8.08;5.08;;;;;;;14.25;71.74;98896.80;4049677;85;21017;-81
2021/08/18 22:24:15;;;;;;;6.70;4.30;;;;;;;14.23;72.02;98898.36;4035148;85;21099;-83
2021/08/18 22:30:20;;;;;;;9.85;3.90;;;;;;;14.21;72.37;98900.14;4029847;85;21055;-82
2021/08/18 22:36:21;;;;;;;6.72;3.85;;;;;;;14.13;72.19;98892.52;4021763;85;21060;-82
2021/08/18 22:42:22;;;;;;;6.55;3.90;;;;;;;14.09;72.33;98895.09;4050507;85;21100;-82
2021/08/18 22:48:24;;;;;;;6.65;3.85;;;;;;;14.11;72.32;98884.44;4031297;85;21092;-82
2021/08/18 22:54:25;;;;;;;7.33;3.95;;;;;;;14.03;73.01;98872.69;4050439;85;21114;-83
2021/08/18 23:00:26;;;;;;;6.75;3.92;;;;;;;13.96;73.78;98881.58;4033038;85;21032;-83
2021/08/18 23:06:28;;;;;;;6.05;3.40;;;;;;;13.85;73.68;98869.83;4040036;85;21014;-84
2021/08/18 23:12:29;;;;;;;7.22;4.05;;;;;;;13.80;73.90;98877.91;4040825;85;21155;-82
2021/08/18 23:18:31;;;;;;;5.90;3.58;;;;;;;13.73;74.20;98877.91;4042012;85;21648;-83
2021/08/18 23:24:32;;;;;;;5.20;3.42;;;;;;;13.66;74.56;98879.91;4035571;85;21109;-82
2021/08/18 23:30:34;;;;;;;6.75;3.27;;;;;;;13.65;74.81;98887.40;4035428;85;21068;-83
2021/08/18 23:36:35;;;;;;;7.87;3.42;;;;;;;13.61;75.31;98885.81;4035484;85;21143;-82
2021/08/18 23:42:37;;;;;;;7.37;3.37;;;;;;;13.57;75.75;98885.05;4039049;85;21480;-82
2021/08/18 23:48:38;;;;;;;6.05;3.62;;;;;;;13.51;76.18;98879.19;4029456;85;21043;-82
2021/08/18 23:54:39;;;;;;;5.33;3.45;;;;;;;13.45;76.31;98888.23;4028259;85;21047;-82
